Nikki Jo. C. — WBA5546 — position and weather

sailwx.info

Track history (hours):
 
Tides and Currents Weather Stations Pressure Air Temp Water Temp Dewpoint Dewpoint Depression Visibility Wind Speed Wind Dir Waves Ship Positions

Nikki Jo. C.

Owner: JACKSON CREEK SEAFOOD INC, DELTAVILLE, VA. More information available from US FCC via Universal Licensing System and Coast Guard Vessel Documentation Center.

Last reported at 2018-Feb-21 09:00 UTC. Time now 2018-Feb-21 09:23 UTC.
Position N 39°13' W 076°35'.

Length 20 m; draft 1 m.

Type: Tug. MMSI: 367127830.

Date/timePositionNaut miles runAvg speedWind from/ knotsBaromVisibWave heightAir tempDewpointWater temp
2018-Feb-21 09:00N 39°13' W 076°35'0 0.0
2018-Feb-21 08:30N 39°13' W 076°35'0 0.0
2018-Feb-21 08:00N 39°13' W 076°35'0 0.0
2018-Feb-21 07:30N 39°13' W 076°35'0 0.0
2018-Feb-21 06:56N 39°13' W 076°35'0 0.0
2018-Feb-21 06:30N 39°13' W 076°35'0 0.0
2018-Feb-21 05:59N 39°13' W 076°35'0 0.0
2018-Feb-21 05:30N 39°13' W 076°35'0 0.0
2018-Feb-21 04:59N 39°13' W 076°35'0 0.0
2018-Feb-21 04:30N 39°13' W 076°35'0 0.0
2018-Feb-21 04:00N 39°13' W 076°35'0 0.0
2018-Feb-21 03:30N 39°13' W 076°35'0 0.0
2018-Feb-21 02:45N 39°13' W 076°35'0 0.0
2018-Feb-21 02:24N 39°13' W 076°35'0 0.0
2018-Feb-21 02:00N 39°13' W 076°35'0 0.0
2018-Feb-21 01:27N 39°13' W 076°35'0 0.0
2018-Feb-21 01:00N 39°13' W 076°35'0 0.0
2018-Feb-21 00:29N 39°13' W 076°35'0 0.0
2018-Feb-20 23:59N 39°13' W 076°35'0 0.0
2018-Feb-20 23:30N 39°13' W 076°35'0 0.0
2018-Feb-20 22:14N 39°13' W 076°35'0 0.0
2018-Feb-20 21:57N 39°13' W 076°35'0 0.0
2018-Feb-20 21:30N 39°13' W 076°35'0 0.0
2018-Feb-20 21:00N 39°13' W 076°35'0 0.0
2018-Feb-20 20:20N 39°13' W 076°35'0 0.3
2018-Feb-20 19:56N 39°13' W 076°35'0 0.1
2018-Feb-20 19:30N 39°13' W 076°35'0 0.0
2018-Feb-20 19:00N 39°13' W 076°35'0 0.0
2018-Feb-20 18:30N 39°13' W 076°35'0 0.0
2018-Feb-20 18:00N 39°13' W 076°35'0 0.0
2018-Feb-20 17:30N 39°13' W 076°35'0 0.0
2018-Feb-20 17:00N 39°13' W 076°35'0 0.0
2018-Feb-20 16:30N 39°13' W 076°35'0 0.0
2018-Feb-20 16:00N 39°13' W 076°35'0 0.0
2018-Feb-20 15:30N 39°13' W 076°35'0 0.0
2018-Feb-20 15:00N 39°13' W 076°35'0 0.0
2018-Feb-20 14:30N 39°13' W 076°35'0 0.0
2018-Feb-20 14:00N 39°13' W 076°35'0 0.0
2018-Feb-20 13:30N 39°13' W 076°35'0 0.0
2018-Feb-20 13:00N 39°13' W 076°35'0 0.0
2018-Feb-20 12:30N 39°13' W 076°35'0 0.0
2018-Feb-20 12:00N 39°13' W 076°35'0 0.0
2018-Feb-20 11:30N 39°13' W 076°35'0 0.0
2018-Feb-20 11:00N 39°13' W 076°35'2 4.7
2018-Feb-20 10:30N 39°13' W 076°32'3 6.8
2018-Feb-20 10:00N 39°11' W 076°28'4 6.8
2018-Feb-20 09:24N 39°09' W 076°24'7 6.7
2018-Feb-20 08:19N 39°01' W 076°22'2 6.3
2018-Feb-20 08:00N 38°60' W 076°23'3 6.2
2018-Feb-20 07:30N 38°57' W 076°25'3 6.5
2018-Feb-20 07:00N 38°54' W 076°26'3 6.5
2018-Feb-20 06:30N 38°51' W 076°26'4 6.5
2018-Feb-20 05:55N 38°47' W 076°27'  
2018-Feb-16 10:14N 37°14' W 076°11'2 6.9
2018-Feb-16 09:56N 37°12' W 076°12'3 6.8
2018-Feb-16 09:30N 37°09' W 076°12'3 6.9
2018-Feb-16 08:59N 37°05' W 076°13'4 7.3
2018-Feb-16 08:29N 37°02' W 076°15'5 9.0
2018-Feb-16 07:58N 36°59' W 076°19'4 8.4
2018-Feb-16 07:30N 36°55' W 076°20'4 7.7
2018-Feb-16 06:57N 36°51' W 076°18'3 6.8
2018-Feb-16 06:30N 36°48' W 076°17'0 0.1
2018-Feb-16 06:00N 36°48' W 076°17'0 0.1
2018-Feb-16 05:30N 36°48' W 076°17'0 0.1
2018-Feb-16 05:00N 36°48' W 076°17'0 0.1
2018-Feb-16 04:30N 36°48' W 076°17'0 0.1
2018-Feb-16 04:00N 36°48' W 076°17'0 0.1
2018-Feb-16 03:30N 36°48' W 076°17'0 0.8
2018-Feb-16 03:00N 36°49' W 076°17'3 6.1
2018-Feb-16 02:30N 36°51' W 076°19'3 6.6
2018-Feb-16 02:00N 36°55' W 076°20'3 6.6
2018-Feb-16 01:29N 36°58' W 076°20'6 7.3
2018-Feb-16 00:39N 37°02' W 076°14'2 6.5
2018-Feb-16 00:22N 37°03' W 076°13'3 6.6
2018-Feb-15 23:57N 37°06' W 076°12'5 7.2
2018-Feb-15 23:14N 37°11' W 076°12'3 0.1
2018-Feb-14 17:25N 37°14' W 076°11'3 7.3
2018-Feb-14 16:57N 37°11' W 076°12'4 7.3
2018-Feb-14 16:27N 37°07' W 076°13'4 7.3
2018-Feb-14 15:56N 37°04' W 076°14'5 7.8
2018-Feb-14 15:18N 36°60' W 076°18'3 8.0
2018-Feb-14 14:57N 36°57' W 076°20'4 7.8
2018-Feb-14 14:29N 36°54' W 076°20'3 6.8
2018-Feb-14 14:00N 36°51' W 076°18'3 5.7
2018-Feb-14 13:30N 36°48' W 076°17'0 0.1
2018-Feb-14 13:00N 36°48' W 076°17'0 0.0
2018-Feb-14 12:30N 36°48' W 076°17'0 0.2
2018-Feb-14 12:00N 36°48' W 076°17'0 0.1
2018-Feb-14 11:30N 36°48' W 076°17'2 3.9
2018-Feb-14 11:00N 36°50' W 076°18'3 6.5
2018-Feb-14 10:29N 36°53' W 076°20'4 7.1
2018-Feb-14 09:57N 36°57' W 076°20'3 6.1
2018-Feb-14 09:27N 36°60' W 076°19'3 5.7
2018-Feb-14 08:56N 37°01' W 076°16'3 5.5
2018-Feb-14 08:26N 37°03' W 076°14'3 6.3
2018-Feb-14 07:56N 37°06' W 076°13'4 7.0
2018-Feb-14 07:26N 37°10' W 076°12'3 7.1
2018-Feb-14 07:00N 37°13' W 076°12'94 5.7
2018-Feb-13 14:26N 38°46' W 076°27'3 6.4
2018-Feb-13 14:00N 38°48' W 076°26'3 6.6
2018-Feb-13 13:30N 38°52' W 076°26'3 6.7
2018-Feb-13 13:00N 38°55' W 076°25'3 6.7
2018-Feb-13 12:29N 38°58' W 076°24'3 6.4
2018-Feb-13 12:00N 39°01' W 076°23'3 5.8
2018-Feb-13 11:27N 39°04' W 076°23'3 5.6
2018-Feb-13 10:58N 39°07' W 076°24'3 5.2
2018-Feb-13 10:24N 39°10' W 076°25'2 5.3
2018-Feb-13 09:59N 39°11' W 076°28'3 5.5
2018-Feb-13 09:30N 39°12' W 076°31'3 5.2
2018-Feb-13 09:00N 39°13' W 076°34'1 1.9
2018-Feb-13 08:30N 39°13' W 076°35'0 0.0
2018-Feb-13 08:00N 39°13' W 076°35'0 0.0
2018-Feb-13 07:30N 39°13' W 076°35'0 0.0
2018-Feb-13 07:00N 39°13' W 076°35'0 0.0
2018-Feb-13 06:30N 39°13' W 076°35'0 0.0
2018-Feb-13 06:00N 39°13' W 076°35'0 0.0
2018-Feb-13 05:30N 39°13' W 076°35'0 0.0
2018-Feb-13 05:00N 39°13' W 076°35'0 0.0
2018-Feb-13 04:30N 39°13' W 076°35'0 0.0
2018-Feb-13 04:00N 39°13' W 076°35'0 0.0
2018-Feb-13 03:30N 39°13' W 076°35'0 0.0
2018-Feb-13 03:00N 39°13' W 076°35'0 0.0
2018-Feb-13 02:30N 39°13' W 076°35'0 0.0
2018-Feb-13 02:00N 39°13' W 076°35'0 0.0
2018-Feb-13 01:30N 39°13' W 076°35'0 0.0
2018-Feb-13 01:00N 39°13' W 076°35'0 0.0
2018-Feb-13 00:30N 39°13' W 076°35'0 0.0
2018-Feb-13 00:00N 39°13' W 076°35'0 0.0
2018-Feb-12 23:30N 39°13' W 076°35'0 0.0
2018-Feb-12 23:00N 39°13' W 076°35'0 0.0
2018-Feb-12 22:30N 39°13' W 076°35'0 0.0
2018-Feb-12 22:00N 39°13' W 076°35'0 0.0
2018-Feb-12 21:30N 39°13' W 076°35'0 0.0
2018-Feb-12 21:00N 39°13' W 076°35'0 0.0
2018-Feb-12 20:30N 39°13' W 076°35'0 0.0
2018-Feb-12 20:00N 39°13' W 076°35'0 0.0
2018-Feb-12 19:30N 39°13' W 076°35'0 0.0
2018-Feb-12 19:00N 39°13' W 076°35'0 0.0
2018-Feb-12 18:30N 39°13' W 076°35'0 0.0
2018-Feb-12 18:00N 39°13' W 076°35'0 0.0
2018-Feb-12 17:30N 39°13' W 076°35'0 0.0
2018-Feb-12 17:00N 39°13' W 076°35'0 0.0
2018-Feb-12 16:30N 39°13' W 076°35'0 0.0
2018-Feb-12 16:00N 39°13' W 076°35'0 0.0
2018-Feb-12 15:30N 39°13' W 076°35'0 0.0
2018-Feb-12 15:00N 39°13' W 076°35'0 0.2
2018-Feb-12 14:30N 39°13' W 076°35'0 0.2
2018-Feb-12 14:00N 39°13' W 076°35'0 0.1
2018-Feb-12 13:30N 39°13' W 076°35'0 0.0
2018-Feb-12 13:00N 39°13' W 076°35'0 0.0
2018-Feb-12 12:30N 39°13' W 076°35'0 0.0
2018-Feb-12 12:00N 39°13' W 076°35'0 0.0
2018-Feb-12 11:30N 39°13' W 076°35'0 0.0
2018-Feb-12 11:00N 39°13' W 076°35'0 0.0
2018-Feb-12 10:30N 39°13' W 076°35'0 0.0
2018-Feb-12 10:00N 39°13' W 076°35'0 0.0
2018-Feb-12 09:30N 39°13' W 076°35'0 0.0
2018-Feb-12 09:00N 39°13' W 076°35'0 0.0
2018-Feb-12 08:30N 39°13' W 076°35'0 0.0
2018-Feb-12 08:00N 39°13' W 076°35'0 0.0
2018-Feb-12 07:30N 39°13' W 076°35'0 0.0
2018-Feb-12 07:00N 39°13' W 076°35'0 0.0
2018-Feb-12 06:30N 39°13' W 076°35'0 0.0
2018-Feb-12 06:00N 39°13' W 076°35'0 0.0
2018-Feb-12 05:30N 39°13' W 076°35'0 0.0
2018-Feb-12 05:00N 39°13' W 076°35'0 0.0
2018-Feb-12 04:30N 39°13' W 076°35'0 0.0
2018-Feb-12 04:00N 39°13' W 076°35'0 0.0
2018-Feb-12 03:30N 39°13' W 076°35'0 0.0
2018-Feb-12 03:00N 39°13' W 076°35'0 0.0
2018-Feb-12 02:30N 39°13' W 076°35'0 0.0
2018-Feb-12 02:00N 39°13' W 076°35'0 0.0
2018-Feb-12 01:30N 39°13' W 076°35'1 2.6
2018-Feb-12 01:00N 39°13' W 076°33'4 7.8
2018-Feb-12 00:30N 39°12' W 076°29'12 7.4
2018-Feb-11 22:49N 39°00' W 076°23'3 8.5
2018-Feb-11 22:29N 38°57' W 076°24'4 8.6
2018-Feb-11 22:00N 38°53' W 076°26'4 8.5
2018-Feb-11 21:30N 38°49' W 076°27'  
Track history (hours):
 
Tides and Currents Weather Stations Pressure Air Temp Water Temp Dewpoint Dewpoint Depression Visibility Wind Speed Wind Dir Waves Ship Positions

Nikki Jo. C.

Owner: JACKSON CREEK SEAFOOD INC, DELTAVILLE, VA. More information available from US FCC via Universal Licensing System and Coast Guard Vessel Documentation Center.

Last reported at 2018-Feb-21 09:00 UTC. Time now 2018-Feb-21 09:23 UTC.
Position N 39°13' W 076°35'.

Length 20 m; draft 1 m.

Type: Tug. MMSI: 367127830.

Date/timePositionNaut miles runAvg speedWind from/ knotsBaromVisibWave heightAir tempDewpointWater temp
2018-Feb-21 09:00N 39°13' W 076°35'0 0.0
2018-Feb-21 08:30N 39°13' W 076°35'0 0.0
2018-Feb-21 08:00N 39°13' W 076°35'0 0.0
2018-Feb-21 07:30N 39°13' W 076°35'0 0.0
2018-Feb-21 06:56N 39°13' W 076°35'0 0.0
2018-Feb-21 06:30N 39°13' W 076°35'0 0.0
2018-Feb-21 05:59N 39°13' W 076°35'0 0.0
2018-Feb-21 05:30N 39°13' W 076°35'0 0.0
2018-Feb-21 04:59N 39°13' W 076°35'0 0.0
2018-Feb-21 04:30N 39°13' W 076°35'0 0.0
2018-Feb-21 04:00N 39°13' W 076°35'0 0.0
2018-Feb-21 03:30N 39°13' W 076°35'0 0.0
2018-Feb-21 02:45N 39°13' W 076°35'0 0.0
2018-Feb-21 02:24N 39°13' W 076°35'0 0.0
2018-Feb-21 02:00N 39°13' W 076°35'0 0.0
2018-Feb-21 01:27N 39°13' W 076°35'0 0.0
2018-Feb-21 01:00N 39°13' W 076°35'0 0.0
2018-Feb-21 00:29N 39°13' W 076°35'0 0.0
2018-Feb-20 23:59N 39°13' W 076°35'0 0.0
2018-Feb-20 23:30N 39°13' W 076°35'0 0.0
2018-Feb-20 22:14N 39°13' W 076°35'0 0.0
2018-Feb-20 21:57N 39°13' W 076°35'0 0.0
2018-Feb-20 21:30N 39°13' W 076°35'0 0.0
2018-Feb-20 21:00N 39°13' W 076°35'0 0.0
2018-Feb-20 20:20N 39°13' W 076°35'0 0.3
2018-Feb-20 19:56N 39°13' W 076°35'0 0.1
2018-Feb-20 19:30N 39°13' W 076°35'0 0.0
2018-Feb-20 19:00N 39°13' W 076°35'0 0.0
2018-Feb-20 18:30N 39°13' W 076°35'0 0.0
2018-Feb-20 18:00N 39°13' W 076°35'0 0.0
2018-Feb-20 17:30N 39°13' W 076°35'0 0.0
2018-Feb-20 17:00N 39°13' W 076°35'0 0.0
2018-Feb-20 16:30N 39°13' W 076°35'0 0.0
2018-Feb-20 16:00N 39°13' W 076°35'0 0.0
2018-Feb-20 15:30N 39°13' W 076°35'0 0.0
2018-Feb-20 15:00N 39°13' W 076°35'0 0.0
2018-Feb-20 14:30N 39°13' W 076°35'0 0.0
2018-Feb-20 14:00N 39°13' W 076°35'0 0.0
2018-Feb-20 13:30N 39°13' W 076°35'0 0.0
2018-Feb-20 13:00N 39°13' W 076°35'0 0.0
2018-Feb-20 12:30N 39°13' W 076°35'0 0.0
2018-Feb-20 12:00N 39°13' W 076°35'0 0.0
2018-Feb-20 11:30N 39°13' W 076°35'0 0.0
2018-Feb-20 11:00N 39°13' W 076°35'2 4.7
2018-Feb-20 10:30N 39°13' W 076°32'3 6.8
2018-Feb-20 10:00N 39°11' W 076°28'4 6.8
2018-Feb-20 09:24N 39°09' W 076°24'7 6.7
2018-Feb-20 08:19N 39°01' W 076°22'2 6.3
2018-Feb-20 08:00N 38°60' W 076°23'3 6.2
2018-Feb-20 07:30N 38°57' W 076°25'3 6.5
2018-Feb-20 07:00N 38°54' W 076°26'3 6.5
2018-Feb-20 06:30N 38°51' W 076°26'4 6.5
2018-Feb-20 05:55N 38°47' W 076°27'  
2018-Feb-16 10:14N 37°14' W 076°11'2 6.9
2018-Feb-16 09:56N 37°12' W 076°12'3 6.8
2018-Feb-16 09:30N 37°09' W 076°12'3 6.9
2018-Feb-16 08:59N 37°05' W 076°13'4 7.3
2018-Feb-16 08:29N 37°02' W 076°15'5 9.0
2018-Feb-16 07:58N 36°59' W 076°19'4 8.4
2018-Feb-16 07:30N 36°55' W 076°20'4 7.7
2018-Feb-16 06:57N 36°51' W 076°18'3 6.8
2018-Feb-16 06:30N 36°48' W 076°17'0 0.1
2018-Feb-16 06:00N 36°48' W 076°17'0 0.1
2018-Feb-16 05:30N 36°48' W 076°17'0 0.1
2018-Feb-16 05:00N 36°48' W 076°17'0 0.1
2018-Feb-16 04:30N 36°48' W 076°17'0 0.1
2018-Feb-16 04:00N 36°48' W 076°17'0 0.1
2018-Feb-16 03:30N 36°48' W 076°17'0 0.8
2018-Feb-16 03:00N 36°49' W 076°17'3 6.1
2018-Feb-16 02:30N 36°51' W 076°19'3 6.6
2018-Feb-16 02:00N 36°55' W 076°20'3 6.6
2018-Feb-16 01:29N 36°58' W 076°20'6 7.3
2018-Feb-16 00:39N 37°02' W 076°14'2 6.5
2018-Feb-16 00:22N 37°03' W 076°13'3 6.6
2018-Feb-15 23:57N 37°06' W 076°12'5 7.2
2018-Feb-15 23:14N 37°11' W 076°12'3 0.1
2018-Feb-14 17:25N 37°14' W 076°11'3 7.3
2018-Feb-14 16:57N 37°11' W 076°12'4 7.3
2018-Feb-14 16:27N 37°07' W 076°13'4 7.3
2018-Feb-14 15:56N 37°04' W 076°14'5 7.8
2018-Feb-14 15:18N 36°60' W 076°18'3 8.0
2018-Feb-14 14:57N 36°57' W 076°20'4 7.8
2018-Feb-14 14:29N 36°54' W 076°20'3 6.8
2018-Feb-14 14:00N 36°51' W 076°18'3 5.7
2018-Feb-14 13:30N 36°48' W 076°17'0 0.1
2018-Feb-14 13:00N 36°48' W 076°17'0 0.0
2018-Feb-14 12:30N 36°48' W 076°17'0 0.2
2018-Feb-14 12:00N 36°48' W 076°17'0 0.1
2018-Feb-14 11:30N 36°48' W 076°17'2 3.9
2018-Feb-14 11:00N 36°50' W 076°18'3 6.5
2018-Feb-14 10:29N 36°53' W 076°20'4 7.1
2018-Feb-14 09:57N 36°57' W 076°20'3 6.1
2018-Feb-14 09:27N 36°60' W 076°19'3 5.7
2018-Feb-14 08:56N 37°01' W 076°16'3 5.5
2018-Feb-14 08:26N 37°03' W 076°14'3 6.3
2018-Feb-14 07:56N 37°06' W 076°13'4 7.0
2018-Feb-14 07:26N 37°10' W 076°12'3 7.1
2018-Feb-14 07:00N 37°13' W 076°12'94 5.7
2018-Feb-13 14:26N 38°46' W 076°27'3 6.4
2018-Feb-13 14:00N 38°48' W 076°26'3 6.6
2018-Feb-13 13:30N 38°52' W 076°26'3 6.7
2018-Feb-13 13:00N 38°55' W 076°25'3 6.7
2018-Feb-13 12:29N 38°58' W 076°24'3 6.4
2018-Feb-13 12:00N 39°01' W 076°23'3 5.8
2018-Feb-13 11:27N 39°04' W 076°23'3 5.6
2018-Feb-13 10:58N 39°07' W 076°24'3 5.2
2018-Feb-13 10:24N 39°10' W 076°25'2 5.3
2018-Feb-13 09:59N 39°11' W 076°28'3 5.5
2018-Feb-13 09:30N 39°12' W 076°31'3 5.2
2018-Feb-13 09:00N 39°13' W 076°34'1 1.9
2018-Feb-13 08:30N 39°13' W 076°35'0 0.0
2018-Feb-13 08:00N 39°13' W 076°35'0 0.0
2018-Feb-13 07:30N 39°13' W 076°35'0 0.0
2018-Feb-13 07:00N 39°13' W 076°35'0 0.0
2018-Feb-13 06:30N 39°13' W 076°35'0 0.0
2018-Feb-13 06:00N 39°13' W 076°35'0 0.0
2018-Feb-13 05:30N 39°13' W 076°35'0 0.0
2018-Feb-13 05:00N 39°13' W 076°35'0 0.0
2018-Feb-13 04:30N 39°13' W 076°35'0 0.0
2018-Feb-13 04:00N 39°13' W 076°35'0 0.0
2018-Feb-13 03:30N 39°13' W 076°35'0 0.0
2018-Feb-13 03:00N 39°13' W 076°35'0 0.0
2018-Feb-13 02:30N 39°13' W 076°35'0 0.0
2018-Feb-13 02:00N 39°13' W 076°35'0 0.0
2018-Feb-13 01:30N 39°13' W 076°35'0 0.0
2018-Feb-13 01:00N 39°13' W 076°35'0 0.0
2018-Feb-13 00:30N 39°13' W 076°35'0 0.0
2018-Feb-13 00:00N 39°13' W 076°35'0 0.0
2018-Feb-12 23:30N 39°13' W 076°35'0 0.0
2018-Feb-12 23:00N 39°13' W 076°35'0 0.0
2018-Feb-12 22:30N 39°13' W 076°35'0 0.0
2018-Feb-12 22:00N 39°13' W 076°35'0 0.0
2018-Feb-12 21:30N 39°13' W 076°35'0 0.0
2018-Feb-12 21:00N 39°13' W 076°35'0 0.0
2018-Feb-12 20:30N 39°13' W 076°35'0 0.0
2018-Feb-12 20:00N 39°13' W 076°35'0 0.0
2018-Feb-12 19:30N 39°13' W 076°35'0 0.0
2018-Feb-12 19:00N 39°13' W 076°35'0 0.0
2018-Feb-12 18:30N 39°13' W 076°35'0 0.0
2018-Feb-12 18:00N 39°13' W 076°35'0 0.0
2018-Feb-12 17:30N 39°13' W 076°35'0 0.0
2018-Feb-12 17:00N 39°13' W 076°35'0 0.0
2018-Feb-12 16:30N 39°13' W 076°35'0 0.0
2018-Feb-12 16:00N 39°13' W 076°35'0 0.0
2018-Feb-12 15:30N 39°13' W 076°35'0 0.0
2018-Feb-12 15:00N 39°13' W 076°35'0 0.2
2018-Feb-12 14:30N 39°13' W 076°35'0 0.2
2018-Feb-12 14:00N 39°13' W 076°35'0 0.1
2018-Feb-12 13:30N 39°13' W 076°35'0 0.0
2018-Feb-12 13:00N 39°13' W 076°35'0 0.0
2018-Feb-12 12:30N 39°13' W 076°35'0 0.0
2018-Feb-12 12:00N 39°13' W 076°35'0 0.0
2018-Feb-12 11:30N 39°13' W 076°35'0 0.0
2018-Feb-12 11:00N 39°13' W 076°35'0 0.0
2018-Feb-12 10:30N 39°13' W 076°35'0 0.0
2018-Feb-12 10:00N 39°13' W 076°35'0 0.0
2018-Feb-12 09:30N 39°13' W 076°35'0 0.0
2018-Feb-12 09:00N 39°13' W 076°35'0 0.0
2018-Feb-12 08:30N 39°13' W 076°35'0 0.0
2018-Feb-12 08:00N 39°13' W 076°35'0 0.0
2018-Feb-12 07:30N 39°13' W 076°35'0 0.0
2018-Feb-12 07:00N 39°13' W 076°35'0 0.0
2018-Feb-12 06:30N 39°13' W 076°35'0 0.0
2018-Feb-12 06:00N 39°13' W 076°35'0 0.0
2018-Feb-12 05:30N 39°13' W 076°35'0 0.0
2018-Feb-12 05:00N 39°13' W 076°35'0 0.0
2018-Feb-12 04:30N 39°13' W 076°35'0 0.0
2018-Feb-12 04:00N 39°13' W 076°35'0 0.0
2018-Feb-12 03:30N 39°13' W 076°35'0 0.0
2018-Feb-12 03:00N 39°13' W 076°35'0 0.0
2018-Feb-12 02:30N 39°13' W 076°35'0 0.0
2018-Feb-12 02:00N 39°13' W 076°35'0 0.0
2018-Feb-12 01:30N 39°13' W 076°35'1 2.6
2018-Feb-12 01:00N 39°13' W 076°33'4 7.8
2018-Feb-12 00:30N 39°12' W 076°29'12 7.4
2018-Feb-11 22:49N 39°00' W 076°23'3 8.5
2018-Feb-11 22:29N 38°57' W 076°24'4 8.6
2018-Feb-11 22:00N 38°53' W 076°26'4 8.5
2018-Feb-11 21:30N 38°49' W 076°27'  

Dump ship's entire track history